Time;durP1;ratioP1;P1;durP2;ratioP2;P2;SDS_P1;SDS_P2;PMS_P1;PMS_P2;Temp;Humidity;BMP_temperature;BMP_pressure;BME280_temperature;BME280_humidity;BME280_pressure;Samples;Min_cycle;Max_cycle;Signal;HPM_P1;HPM_P2
2022/01/08 00:43:33;;;;;;;12.57;7.10;;;;;;;;;;4825933;29;20099;-78
2022/01/08 00:50:18;;;;;;;;;;;;;;;;;;;;;
2022/01/08 00:56:58;;;;;;;;;;;;;;;;;;;;;
2022/01/08 01:11:17;;;;;;;;;;;;;;;;;;;;;
2022/01/08 01:20:33;;;;;;;11.35;6.05;;;;;;;;;;5051326;23;20056;-78
2022/01/08 01:47:36;;;;;;;;;;;;;;;;;;;;;
2022/01/08 01:54:35;;;;;;;11.55;6.28;;;;;;;;;;4948244;28;20114;-79
2022/01/08 02:08:26;;;;;;;12.00;5.72;;;;;;;;;;4917941;29;20038;-80
2022/01/08 02:17:47;;;;;;;;;;;;;;;;;;;;;
2022/01/08 02:24:41;;;;;;;7.72;4.63;;;;;;;;;;4976320;28;20035;-80
2022/01/08 02:30:46;;;;;;;11.27;5.68;;;;;;;;;;4864688;29;20069;-81
2022/01/08 02:34:02;;;;;;;;;;;;;;;;;;;;;
2022/01/08 02:52:53;;;;;;;10.52;5.45;;;;;;;;;;4956958;28;20144;-80
2022/01/08 02:56:22;;;;;;;8.38;4.82;;;;;;;;;;4958242;28;20047;-79
2022/01/08 03:54:43;;;;;;;;;;;;;;;;;;;;;
2022/01/08 04:01:02;;;;;;;;;;;;;;;;;;;;;
2022/01/08 04:14:51;;;;;;;;;;;;;;;;;;;;;
2022/01/08 04:18:24;;;;;;;11.23;5.78;;;;;;;;;;4989092;28;20044;-79
2022/01/08 04:28:49;;;;;;;10.27;5.50;;;;;;;;;;4954293;29;20075;-80
2022/01/08 04:40:14;;;;;;;8.32;5.07;;;;;;;;;;4921056;29;20100;-78
2022/01/08 04:43:43;;;;;;;;;;;;;;;;;;;;;
2022/01/08 05:18:08;;;;;;;6.40;4.38;;;;;;;;;;4883981;29;20044;-80
2022/01/08 05:35:54;;;;;;;;;;;;;;;;;;;;;
2022/01/08 05:53:04;;;;;;;6.43;3.55;;;;;;;;;;4813746;29;20080;-79
2022/01/08 06:07:21;;;;;;;;;;;;;;;;;;;;;
2022/01/08 06:21:05;;;;;;;;;;;;;;;;;;;;;
2022/01/08 06:24:20;;;;;;;9.60;5.03;;;;;;;;;;4922939;29;20046;-80
2022/01/08 06:28:18;;;;;;;;;;;;;;;;;;;;;
2022/01/08 06:41:16;;;;;;;7.88;4.28;;;;;;;;;;5010771;28;20029;-76
2022/01/08 06:50:41;;;;;;;11.80;5.20;;;;;;;;;;5033532;28;20130;-80
2022/01/08 07:04:44;;;;;;;;;;;;;;;;;;;;;
2022/01/08 07:21:54;;;;;;;;;;;;;;;;;;;;;
2022/01/08 07:52:13;;;;;;;11.45;6.63;;;;;;;;;;5005994;28;20153;-77
2022/01/08 08:06:36;;;;;;;;;;;;;;;;;;;;;
2022/01/08 08:10:13;;;;;;;;;;;;;;;;;;;;;
2022/01/08 08:17:01;;;;;;;;;;;;;;;;;;;;;
2022/01/08 08:41:37;;;;;;;10.45;5.43;;;;;;;;;;4912669;29;20043;-79
2022/01/08 08:44:55;;;;;;;7.55;4.95;;;;;;;;;;4961620;28;20084;-78
2022/01/08 08:47:23;;;;;;;9.02;5.47;;;;;;;;;;4962189;28;20037;-81
2022/01/08 08:49:48;;;;;;;12.15;5.60;;;;;;;;;;4978886;28;20038;-78
2022/01/08 08:52:14;;;;;;;8.45;4.90;;;;;;;;;;5058973;28;20379;-78
2022/01/08 08:54:41;;;;;;;9.07;5.40;;;;;;;;;;5075154;28;20024;-78
2022/01/08 08:57:07;;;;;;;7.97;5.00;;;;;;;;;;5075348;28;20078;-78
2022/01/08 08:59:32;;;;;;;9.77;5.22;;;;;;;;;;5077821;28;20024;-79
2022/01/08 09:01:57;;;;;;;8.30;4.93;;;;;;;;;;5081949;28;20115;-79
2022/01/08 09:04:23;;;;;;;7.45;4.28;;;;;;;;;;5083691;28;20028;-80
2022/01/08 09:06:49;;;;;;;8.90;4.50;;;;;;;;;;5082982;28;20035;-77
2022/01/08 09:09:14;;;;;;;9.27;5.32;;;;;;;;;;5081715;28;20043;-79
2022/01/08 09:11:40;;;;;;;9.45;4.78;;;;;;;;;;5083737;28;20021;-79
2022/01/08 09:14:06;;;;;;;10.85;5.03;;;;;;;;;;5083205;28;20074;-81
2022/01/08 09:16:31;;;;;;;8.38;4.90;;;;;;;;;;5080846;28;20020;-80
2022/01/08 09:18:57;;;;;;;9.43;4.88;;;;;;;;;;5080794;28;20031;-79
2022/01/08 09:21:23;;;;;;;8.02;4.60;;;;;;;;;;5080897;28;20020;-80
2022/01/08 09:23:48;;;;;;;8.10;4.90;;;;;;;;;;5079171;28;20565;-79
2022/01/08 09:26:13;;;;;;;8.18;4.95;;;;;;;;;;5079722;28;20051;-79
2022/01/08 09:28:39;;;;;;;10.70;5.15;;;;;;;;;;5079018;28;20112;-80
2022/01/08 09:31:05;;;;;;;7.88;4.70;;;;;;;;;;5079118;28;20016;-79
2022/01/08 09:33:31;;;;;;;8.90;4.95;;;;;;;;;;5079994;28;20023;-79
2022/01/08 09:54:30;;;;;;;;;;;;;;;;;;;;;
2022/01/08 10:05:54;;;;;;;11.90;7.05;;;;;;;;;;4891689;29;20056;-79
2022/01/08 10:08:13;;;;;;;10.27;6.40;;;;;;;;;;4917581;28;20036;-77
2022/01/08 10:10:39;;;;;;;12.82;6.43;;;;;;;;;;5021138;28;20040;-79
2022/01/08 10:13:32;;;;;;;11.20;6.78;;;;;;;;;;5060903;28;20024;-79
2022/01/08 10:20:04;;;;;;;18.83;6.35;;;;;;;;;;5057331;28;20047;-79
2022/01/08 10:23:00;;;;;;;10.95;5.97;;;;;;;;;;5038849;28;20040;-79
2022/01/08 10:26:18;;;;;;;;;;;;;;;;;;;;;
2022/01/08 10:29:40;;;;;;;8.88;5.72;;;;;;;;;;5042292;28;20057;-77
2022/01/08 10:33:02;;;;;;;10.98;6.53;;;;;;;;;;5018507;28;20102;-76
2022/01/08 10:36:14;;;;;;;12.88;7.45;;;;;;;;;;5005328;28;20056;-79
2022/01/08 10:39:50;;;;;;;;;;;;;;;;;;;;;
2022/01/08 10:46:27;;;;;;;;;;;;;;;;;;;;;
2022/01/08 10:49:31;;;;;;;;;;;;;;;;;;;;;
2022/01/08 11:00:19;;;;;;;12.30;6.75;;;;;;;;;;4994395;28;20117;-78
2022/01/08 11:03:35;;;;;;;;;;;;;;;;;;;;;
2022/01/08 11:13:15;;;;;;;13.80;7.32;;;;;;;;;;4917570;29;20063;-79
2022/01/08 11:15:51;;;;;;;11.55;7.07;;;;;;;;;;4927237;28;20427;-79
2022/01/08 11:18:41;;;;;;;13.13;7.07;;;;;;;;;;4990147;28;20036;-79
2022/01/08 11:21:33;;;;;;;9.90;6.55;;;;;;;;;;5035375;28;20521;-79
2022/01/08 11:24:01;;;;;;;10.95;6.18;;;;;;;;;;5021248;28;20120;-80
2022/01/08 11:37:18;;;;;;;12.88;7.50;;;;;;;;;;5056583;28;20039;-79
2022/01/08 11:43:51;;;;;;;12.40;7.95;;;;;;;;;;4975708;28;20563;-81
2022/01/08 12:01:22;;;;;;;;;;;;;;;;;;;;;
2022/01/08 12:08:45;;;;;;;;;;;;;;;;;;;;;
2022/01/08 12:29:29;;;;;;;;;;;;;;;;;;;;;
2022/01/08 12:36:19;;;;;;;17.80;9.45;;;;;;;;;;4916231;29;20534;-78
2022/01/08 12:43:22;;;;;;;;;;;;;;;;;;;;;
2022/01/08 12:57:34;;;;;;;16.08;9.18;;;;;;;;;;4968394;28;20530;-78
2022/01/08 13:00:56;;;;;;;;;;;;;;;;;;;;;
2022/01/08 13:28:22;;;;;;;;;;;;;;;;;;;;;
2022/01/08 13:31:38;;;;;;;;;;;;;;;;;;;;;
2022/01/08 13:38:42;;;;;;;;;;;;;;;;;;;;;
2022/01/08 13:52:18;;;;;;;16.45;10.40;;;;;;;;;;4936937;29;20039;-79
2022/01/08 14:02:45;;;;;;;;;;;;;;;;;;;;;
2022/01/08 14:10:07;;;;;;;;;;;;;;;;;;;;;
2022/01/08 14:13:40;;;;;;;;;;;;;;;;;;;;;
2022/01/08 14:21:16;;;;;;;;;;;;;;;;;;;;;
2022/01/08 14:24:09;;;;;;;19.80;11.77;;;;;;;;;;5027996;28;20037;-78
2022/01/08 14:41:45;;;;;;;;;;;;;;;;;;;;;
2022/01/08 14:45:10;;;;;;;20.30;11.43;;;;;;;;;;4868782;29;20047;-80
2022/01/08 14:51:57;;;;;;;21.90;10.70;;;;;;;;;;4937235;29;20049;-79
2022/01/08 14:58:44;;;;;;;19.38;10.95;;;;;;;;;;4939712;29;20034;-79
2022/01/08 15:02:04;;;;;;;20.33;11.52;;;;;;;;;;4928054;29;20080;-78
2022/01/08 15:12:42;;;;;;;;;;;;;;;;;;;;;
2022/01/08 15:23:15;;;;;;;24.55;13.65;;;;;;;;;;4910451;29;20036;-79
2022/01/08 15:26:02;;;;;;;29.75;12.60;;;;;;;;;;4864099;29;20033;-79
2022/01/08 15:39:48;;;;;;;;;;;;;;;;;;;;;
2022/01/08 15:43:13;;;;;;;21.77;11.77;;;;;;;;;;5001075;28;20526;-79
2022/01/08 15:45:38;;;;;;;20.45;11.57;;;;;;;;;;5054816;28;20489;-76
2022/01/08 15:48:04;;;;;;;19.20;11.02;;;;;;;;;;5058613;28;20041;-76
2022/01/08 15:50:30;;;;;;;20.10;12.02;;;;;;;;;;5058705;28;20021;-77
2022/01/08 15:52:55;;;;;;;19.73;11.32;;;;;;;;;;5061142;28;20035;-78
2022/01/08 15:55:22;;;;;;;19.92;11.23;;;;;;;;;;5060931;28;20104;-80
2022/01/08 15:57:47;;;;;;;21.90;12.25;;;;;;;;;;5065336;28;20103;-80
2022/01/08 16:00:13;;;;;;;19.92;11.50;;;;;;;;;;5063724;28;20052;-80
2022/01/08 16:02:39;;;;;;;23.90;12.93;;;;;;;;;;5066375;28;20024;-79
2022/01/08 16:05:04;;;;;;;20.15;11.52;;;;;;;;;;5065620;28;20028;-80
2022/01/08 16:07:30;;;;;;;23.60;13.10;;;;;;;;;;5065692;28;20063;-78
2022/01/08 16:09:55;;;;;;;24.27;12.90;;;;;;;;;;5066438;28;20438;-79
2022/01/08 16:12:20;;;;;;;21.88;11.85;;;;;;;;;;5065597;28;20021;-78
2022/01/08 16:14:45;;;;;;;24.60;14.32;;;;;;;;;;5064232;28;20024;-80
2022/01/08 16:17:11;;;;;;;24.10;14.25;;;;;;;;;;5066313;28;20036;-79
2022/01/08 16:19:36;;;;;;;26.08;13.60;;;;;;;;;;5066376;28;20025;-79
2022/01/08 16:22:01;;;;;;;21.05;11.95;;;;;;;;;;5066581;28;20387;-79
2022/01/08 16:24:26;;;;;;;22.85;12.90;;;;;;;;;;5064020;28;20028;-79
2022/01/08 16:26:52;;;;;;;22.55;11.80;;;;;;;;;;5064526;28;20394;-78
2022/01/08 16:29:18;;;;;;;22.30;11.98;;;;;;;;;;5064221;28;20036;-79
2022/01/08 16:31:44;;;;;;;22.88;12.57;;;;;;;;;;5064992;28;20059;-79
2022/01/08 16:34:09;;;;;;;21.73;11.32;;;;;;;;;;5064106;28;20021;-79
2022/01/08 16:36:34;;;;;;;18.98;11.80;;;;;;;;;;5061225;28;20559;-79
2022/01/08 16:38:59;;;;;;;19.25;11.27;;;;;;;;;;5058802;28;20071;-77
2022/01/08 16:41:25;;;;;;;22.55;13.27;;;;;;;;;;5060089;28;20033;-79
2022/01/08 16:43:51;;;;;;;28.10;16.33;;;;;;;;;;5058382;28;20025;-80
2022/01/08 16:46:19;;;;;;;31.70;18.02;;;;;;;;;;5058559;28;20025;-79
2022/01/08 16:48:45;;;;;;;30.95;18.17;;;;;;;;;;5059669;28;20512;-79
2022/01/08 16:51:11;;;;;;;32.05;16.50;;;;;;;;;;5060509;28;20021;-78
2022/01/08 16:53:38;;;;;;;27.45;15.65;;;;;;;;;;5060163;28;20028;-79
2022/01/08 16:56:08;;;;;;;34.22;17.58;;;;;;;;;;5058385;28;20482;-79
2022/01/08 16:58:35;;;;;;;49.10;21.80;;;;;;;;;;5059809;28;20060;-81
2022/01/08 17:01:00;;;;;;;34.97;17.73;;;;;;;;;;5057686;28;20021;-79
2022/01/08 17:03:25;;;;;;;34.20;15.77;;;;;;;;;;5058075;28;20074;-78
2022/01/08 17:06:59;;;;;;;;;;;;;;;;;;;;;
2022/01/08 17:09:55;;;;;;;26.98;13.30;;;;;;;;;;5042819;28;20047;-80
2022/01/08 17:12:36;;;;;;;23.60;12.65;;;;;;;;;;5059996;28;20113;-80
2022/01/08 17:15:35;;;;;;;;;;;;;;;;;;;;;
2022/01/08 17:18:24;;;;;;;47.83;25.38;;;;;;;;;;5058531;28;20088;-80
2022/01/08 17:21:29;;;;;;;54.92;24.85;;;;;;;;;;5059256;28;20113;-79
2022/01/08 17:24:07;;;;;;;57.67;25.05;;;;;;;;;;5059180;28;20465;-79
2022/01/08 17:27:04;;;;;;;;;;;;;;;;;;;;;
2022/01/08 17:29:52;;;;;;;46.75;20.98;;;;;;;;;;5045089;28;20033;-79
2022/01/08 17:32:49;;;;;;;48.20;22.73;;;;;;;;;;5058181;28;20390;-80
2022/01/08 17:35:38;;;;;;;45.17;21.02;;;;;;;;;;5050766;28;20112;-78
2022/01/08 17:38:32;;;;;;;46.20;20.33;;;;;;;;;;5058373;28;20166;-80
2022/01/08 17:41:22;;;;;;;37.40;19.05;;;;;;;;;;5059137;28;20036;-79
2022/01/08 17:46:47;;;;;;;28.63;16.45;;;;;;;;;;5050145;28;20035;-80
2022/01/08 17:50:10;;;;;;;;;;;;;;;;;;;;;
2022/01/08 17:53:18;;;;;;;32.45;15.35;;;;;;;;;;5016188;28;20033;-80
2022/01/08 17:56:06;;;;;;;29.38;15.10;;;;;;;;;;5037927;28;20494;-79
2022/01/08 17:58:34;;;;;;;32.80;15.45;;;;;;;;;;5057105;28;20555;-81
2022/01/08 18:01:06;;;;;;;28.92;15.18;;;;;;;;;;5057930;28;20095;-79
2022/01/08 18:03:45;;;;;;;30.98;15.65;;;;;;;;;;5057958;28;20498;-78
2022/01/08 18:06:27;;;;;;;30.70;14.77;;;;;;;;;;5058528;28;20033;-79
2022/01/08 18:09:20;;;;;;;29.05;14.82;;;;;;;;;;5055354;28;20063;-79
2022/01/08 18:14:54;;;;;;;;;;;;;;;;;;;;;
2022/01/08 18:17:54;;;;;;;25.38;14.27;;;;;;;;;;5059543;28;20092;-80
2022/01/08 18:20:26;;;;;;;24.58;13.77;;;;;;;;;;5060087;28;20031;-80
2022/01/08 18:23:20;;;;;;;28.85;14.40;;;;;;;;;;5058474;28;20037;-79
2022/01/08 18:26:35;;;;;;;30.75;14.63;;;;;;;;;;5021171;28;20029;-80
2022/01/08 18:29:10;;;;;;;28.35;14.27;;;;;;;;;;5037983;28;20032;-78
2022/01/08 18:31:36;;;;;;;26.30;13.70;;;;;;;;;;5058103;28;20025;-79
2022/01/08 18:34:43;;;;;;;;;;;;;;;;;;;;;
2022/01/08 18:37:36;;;;;;;22.33;12.95;;;;;;;;;;5058109;28;20108;-77
2022/01/08 18:40:48;;;;;;;29.55;13.55;;;;;;;;;;5056928;28;20090;-79
2022/01/08 18:43:42;;;;;;;28.33;13.52;;;;;;;;;;5044186;28;20118;-77
2022/01/08 18:46:20;;;;;;;26.75;13.55;;;;;;;;;;5057095;28;20024;-78
2022/01/08 18:49:11;;;;;;;23.77;13.10;;;;;;;;;;5058165;28;20102;-80
2022/01/08 18:51:56;;;;;;;28.35;13.38;;;;;;;;;;5056494;28;20025;-79
2022/01/08 18:54:46;;;;;;;25.95;13.48;;;;;;;;;;5055293;28;20043;-79
2022/01/08 18:58:01;;;;;;;38.22;21.45;;;;;;;;;;5057300;28;20061;-79
2022/01/08 19:00:57;;;;;;;27.17;15.57;;;;;;;;;;5056382;28;20036;-79
2022/01/08 19:04:12;;;;;;;32.38;16.13;;;;;;;;;;5057334;28;20036;-78
2022/01/08 19:06:46;;;;;;;24.20;12.60;;;;;;;;;;5055091;28;20363;-78
2022/01/08 19:09:24;;;;;;;25.25;13.00;;;;;;;;;;5055402;28;20037;-79
2022/01/08 19:12:21;;;;;;;25.70;12.73;;;;;;;;;;5055254;28;20115;-81
2022/01/08 19:14:55;;;;;;;25.67;12.57;;;;;;;;;;5054740;28;20060;-79
2022/01/08 19:17:37;;;;;;;22.75;12.30;;;;;;;;;;5056248;28;20116;-78
2022/01/08 19:20:05;;;;;;;21.40;12.15;;;;;;;;;;5057017;28;20025;-79
2022/01/08 19:22:53;;;;;;;;;;;;;;;;;;;;;
2022/01/08 19:25:37;;;;;;;26.30;11.65;;;;;;;;;;5056160;28;20108;-79
2022/01/08 19:28:53;;;;;;;23.48;12.48;;;;;;;;;;5057111;28;20021;-79
2022/01/08 19:31:25;;;;;;;22.67;12.65;;;;;;;;;;5056077;28;20059;-79
2022/01/08 19:34:11;;;;;;;27.95;12.70;;;;;;;;;;5054153;28;20040;-78
2022/01/08 19:37:14;;;;;;;21.85;11.38;;;;;;;;;;5056110;28;20036;-79
2022/01/08 19:39:50;;;;;;;18.85;10.90;;;;;;;;;;5057250;28;20020;-79
2022/01/08 19:43:06;;;;;;;;;;;;;;;;;;;;;
2022/01/08 19:48:46;;;;;;;24.95;10.45;;;;;;;;;;5056840;28;20494;-79
2022/01/08 19:51:34;;;;;;;22.15;10.52;;;;;;;;;;5055832;28;20075;-81
2022/01/08 19:54:07;;;;;;;21.30;11.50;;;;;;;;;;5057149;28;20022;-77
2022/01/08 19:56:38;;;;;;;23.27;11.40;;;;;;;;;;5055582;28;20534;-79
2022/01/08 19:59:21;;;;;;;20.05;10.98;;;;;;;;;;5056005;28;20037;-78
2022/01/08 20:01:52;;;;;;;19.45;10.57;;;;;;;;;;5055339;28;20393;-79
2022/01/08 20:04:54;;;;;;;18.20;10.27;;;;;;;;;;5054765;28;20033;-79
2022/01/08 20:07:36;;;;;;;17.85;9.90;;;;;;;;;;5054818;28;20033;-79
2022/01/08 20:10:40;;;;;;;17.10;8.95;;;;;;;;;;5055971;28;20025;-79
2022/01/08 20:13:28;;;;;;;17.55;8.25;;;;;;;;;;5054580;28;20033;-78
2022/01/08 20:16:08;;;;;;;16.00;8.23;;;;;;;;;;5056345;28;20033;-78
2022/01/08 20:18:50;;;;;;;12.85;6.70;;;;;;;;;;5054797;28;20024;-79
2022/01/08 20:21:51;;;;;;;;;;;;;;;;;;;;;
2022/01/08 20:24:57;;;;;;;9.75;4.97;;;;;;;;;;5056344;28;20112;-79
2022/01/08 20:27:31;;;;;;;12.05;5.55;;;;;;;;;;5053986;28;20372;-79
2022/01/08 20:30:50;;;;;;;9.45;5.60;;;;;;;;;;5053908;28;20033;-79
2022/01/08 20:33:21;;;;;;;10.23;5.35;;;;;;;;;;5054218;28;20029;-79
2022/01/08 20:36:02;;;;;;;11.13;5.47;;;;;;;;;;5058599;28;20028;-79
2022/01/08 20:38:38;;;;;;;9.80;5.32;;;;;;;;;;5060259;28;20029;-80
2022/01/08 20:41:25;;;;;;;;;;;;;;;;;;;;;
2022/01/08 20:46:55;;;;;;;11.35;4.93;;;;;;;;;;5056614;28;20025;-79
2022/01/08 20:49:40;;;;;;;13.00;5.25;;;;;;;;;;5060028;28;20486;-79
2022/01/08 20:52:12;;;;;;;8.50;4.95;;;;;;;;;;5057502;28;20035;-79
2022/01/08 20:55:21;;;;;;;;;;;;;;;;;;;;;
2022/01/08 20:58:04;;;;;;;12.35;6.13;;;;;;;;;;5058880;28;20092;-79
2022/01/08 21:00:39;;;;;;;12.38;5.80;;;;;;;;;;5057890;28;20024;-79
2022/01/08 21:03:22;;;;;;;;;;;;;;;;;;;;;
2022/01/08 21:06:46;;;;;;;22.00;7.28;;;;;;;;;;5058349;28;20413;-80
2022/01/08 21:09:16;;;;;;;17.92;8.02;;;;;;;;;;5039086;28;20048;-80
2022/01/08 21:12:12;;;;;;;18.02;8.25;;;;;;;;;;5058749;28;20025;-78
2022/01/08 21:14:50;;;;;;;;;;;;;;;;;;;;;
2022/01/08 21:20:50;;;;;;;17.85;7.05;;;;;;;;;;5059261;28;20033;-80
2022/01/08 21:24:00;;;;;;;;;;;;;;;;;;;;;
2022/01/08 21:26:39;;;;;;;22.55;8.00;;;;;;;;;;5058644;28;20112;-79
2022/01/08 21:29:57;;;;;;;14.80;6.80;;;;;;;;;;5058728;28;20492;-80
2022/01/08 21:32:51;;;;;;;11.07;5.82;;;;;;;;;;5016132;28;20032;-79
2022/01/08 21:39:16;;;;;;;;;;;;;;;;;;;;;
2022/01/08 21:42:15;;;;;;;16.08;6.00;;;;;;;;;;5057204;28;20047;-79
2022/01/08 21:49:02;;;;;;;;;;;;;;;;;;;;;
2022/01/08 21:52:12;;;;;;;;;;;;;;;;;;;;;
2022/01/08 21:54:38;;;;;;;9.70;4.35;;;;;;;;;;5027860;28;20040;-79
2022/01/08 22:08:31;;;;;;;;;;;;;;;;;;;;;
2022/01/08 22:11:28;;;;;;;9.02;4.63;;;;;;;;;;5055913;28;20029;-80
2022/01/08 22:17:52;;;;;;;8.55;4.03;;;;;;;;;;5055083;28;20085;-79
2022/01/08 22:20:32;;;;;;;8.40;3.80;;;;;;;;;;5053593;28;20044;-79
2022/01/08 22:30:50;;;;;;;;;;;;;;;;;;;;;
2022/01/08 22:34:23;;;;;;;9.05;4.22;;;;;;;;;;4972469;28;20105;-79
2022/01/08 22:37:44;;;;;;;8.52;3.33;;;;;;;;;;5041398;28;20036;-80
2022/01/08 22:40:27;;;;;;;13.68;4.00;;;;;;;;;;5031600;28;20039;-78
2022/01/08 22:43:07;;;;;;;8.13;3.80;;;;;;;;;;5056090;28;20025;-79
2022/01/08 22:49:41;;;;;;;7.22;3.90;;;;;;;;;;5032691;28;20036;-79
2022/01/08 22:52:57;;;;;;;;;;;;;;;;;;;;;
2022/01/08 22:55:59;;;;;;;7.75;3.60;;;;;;;;;;5048437;28;20516;-80
2022/01/08 22:59:09;;;;;;;5.68;3.30;;;;;;;;;;5055735;28;20041;-80
2022/01/08 23:02:10;;;;;;;7.55;3.50;;;;;;;;;;5055532;28;20033;-79
2022/01/08 23:05:01;;;;;;;9.73;2.88;;;;;;;;;;5054122;28;20095;-79
2022/01/08 23:07:42;;;;;;;6.15;3.47;;;;;;;;;;5056116;28;20024;-79
2022/01/08 23:10:11;;;;;;;5.95;3.10;;;;;;;;;;5055848;28;20029;-79
2022/01/08 23:13:31;;;;;;;;;;;;;;;;;;;;;
2022/01/08 23:16:46;;;;;;;6.03;2.83;;;;;;;;;;5038194;28;20029;-81
2022/01/08 23:20:20;;;;;;;;;;;;;;;;;;;;;
2022/01/08 23:23:46;;;;;;;6.40;2.85;;;;;;;;;;5056212;28;20039;-79
2022/01/08 23:27:03;;;;;;;6.03;2.78;;;;;;;;;;4975455;28;20074;-79
2022/01/08 23:29:28;;;;;;;6.60;2.25;;;;;;;;;;4947943;29;20039;-79
2022/01/08 23:33:00;;;;;;;8.10;3.00;;;;;;;;;;5043838;28;20040;-78
2022/01/08 23:35:26;;;;;;;7.78;2.78;;;;;;;;;;4955760;28;20046;-79
2022/01/08 23:38:44;;;;;;;3.47;2.15;;;;;;;;;;5055123;28;20435;-78
2022/01/08 23:44:42;;;;;;;7.03;2.97;;;;;;;;;;5014293;28;20041;-78
2022/01/08 23:55:19;;;;;;;4.90;2.72;;;;;;;;;;4920417;29;20028;-79
2022/01/08 23:58:41;;;;;;;;;;;;;;;;;;;;;
